Flight Track Log - Related Links

Times and Time Zones

All times are in EDT time to prevent confusion due to time zone crossing. See the N654DL flight status page for this flight to view local times or setup timezone preferences in your user account.

Time Position Orientation Groundspeed Altitude Reporting Facility
EDT Latitude Longitude Course Direction KTS MPH feet Rate Location/Type
Sun 11:31:43 AM 33.6519 -84.3633 246° West 460 529 2,700  Level Atlanta Center
Sun 11:32:43 AM 33.6875 -84.2811 63° Northeast 376 433 4,200 2,150 Climbing Atlanta Center
Sun 11:33:43 AM 33.7647 -84.2761 North 253 291 7,000 2,800 Climbing Atlanta Center
Sun 11:34:00 AM 33.8000 -84.5234 270° West  Level FlightAware Approximate
Sun 11:34:43 AM 33.8147 -84.3364 315° West 285 328 9,800  Level Atlanta Center
Sun 11:35:00 AM 33.7532 -84.6490 234° Southwest  Level FlightAware Approximate
Sun 11:35:43 AM 33.8125 -84.4289 268° West 266 306 11,300  Level Atlanta Center
Sun 11:36:00 AM 33.6825 -84.7640 234° Southwest  Level FlightAware Approximate
Sun 11:36:43 AM 33.8100 -84.5414 268° West 318 366 13,500  Level Atlanta Center
Sun 11:37:00 AM 33.6236 -84.8873 246° West  Level FlightAware Approximate
Sun 11:37:43 AM 33.7781 -84.6386 248° West 323 372 16,000  Level Atlanta Center
Sun 11:38:43 AM 33.7567 -84.7408 256° West 318 366 17,800 1,550 Climbing Atlanta Center
Sun 11:39:43 AM 33.7519 -84.8483 267° West 345 397 19,100 1,513 Climbing Atlanta Center
Sun 11:40:42 AM 33.7511 -84.9658 270° West 359 413 20,800 1,250 Climbing Atlanta Center
Sun 11:41:43 AM 33.7458 -85.0881 267° West 365 420 21,600 950 Climbing Atlanta Center
Sun 11:42:42 AM 33.7425 -85.2306 268° West 378 435 22,700 1,350 Climbing Atlanta Center
Sun 11:43:43 AM 33.7369 -85.3653 267° West 398 458 24,300 1,537 Climbing Atlanta Center
Sun 11:44:43 AM 33.7333 -85.5025 268° West 403 464 25,800 1,400 Climbing Atlanta Center
Sun 11:45:43 AM 33.7297 -85.6375 268° West 403 464 27,100 1,200 Climbing Atlanta Center
Sun 11:46:43 AM 33.7278 -85.7747 269° West 403 464 28,200 1,300 Climbing Atlanta Center
Sun 11:47:43 AM 33.7175 -85.9094 265° West 403 464 29,700 1,850 Climbing Atlanta Center
Sun 11:48:43 AM 33.7111 -86.0392 267° West 403 464 31,900 1,750 Climbing Atlanta Center
Sun 11:49:43 AM 33.7069 -86.1689 268° West 398 458 33,200 1,140 Climbing Atlanta Center
Sun 11:50:44 AM 33.7028 -86.2936 268° West 393 452 34,200 900 Climbing Atlanta Center
Sun 11:51:43 AM 33.6983 -86.4183 268° West 381 438 35,000 763 Climbing Atlanta Center
Sun 11:52:42 AM 33.6917 -86.5456 266° West 381 438 35,700 500 Climbing Atlanta Center
Sun 11:53:43 AM 33.6681 -86.6647 257° West 381 438 36,000 150 Climbing Atlanta Center
Sun 11:54:42 AM 33.6364 -86.7858 253° West 381 438 36,000  Level Atlanta Center
Sun 11:55:43 AM 33.6022 -86.9069 251° West 381 438 36,000  Level Atlanta Center
Sun 11:56:43 AM 33.5700 -87.0281 252° West 381 438 36,000  Level Atlanta Center
Sun 11:57:43 AM 33.5358 -87.1539 252° West 381 438 36,000  Level Atlanta Center
Sun 11:58:42 AM 33.5056 -87.2750 253° West 381 438 36,000  Level Atlanta Center
Sun 11:59:33 AM 33.4753 -87.3811 251° West 383 441 36,000  Level Memphis Center
Sun 12:00:33 PM 33.4300 -87.4972 245° Southwest 376 433 36,000  Level Memphis Center
Sun 12:01:33 PM 33.3828 -87.6158 245° Southwest 382 440 36,000  Level Memphis Center
Sun 12:02:33 PM 33.3372 -87.7339 245° Southwest 387 445 36,000  Level Memphis Center
Sun 12:03:33 PM 33.2936 -87.8519 246° West 387 445 36,000  Level Memphis Center
Sun 12:04:33 PM 33.2586 -87.9747 251° West 387 445 36,000  Level Memphis Center
Sun 12:05:33 PM 33.2256 -88.1000 253° West 392 451 36,000  Level Memphis Center
Sun 12:06:33 PM 33.1983 -88.2197 255° West 387 445 36,000  Level Memphis Center
Sun 12:07:33 PM 33.1733 -88.3444 257° West 382 440 36,000 50 Level Memphis Center
Sun 12:08:33 PM 33.1522 -88.4689 259° West 382 440 36,100  Climbing Memphis Center
Sun 12:09:33 PM 33.1333 -88.5983 260° West 387 445 36,000 -50 Descending Memphis Center
Sun 12:10:33 PM 33.1164 -88.7278 261° West 397 457 36,000  Level Memphis Center
Sun 12:11:33 PM 33.1033 -88.8544 263° West 397 457 36,000  Level Memphis Center
Sun 12:12:33 PM 33.0922 -88.9811 264° West 392 451 36,000  Level Memphis Center
Sun 12:13:33 PM 33.0808 -89.0978 263° West 392 451 36,000  Level Memphis Center
Sun 12:14:33 PM 33.0781 -89.2242 269° West 392 451 36,000  Level Memphis Center
Sun 12:15:33 PM 33.0833 -89.3531 273° West 386 444 36,000  Level Memphis Center
Sun 12:16:33 PM 33.0864 -89.4769 272° West 386 444 36,000  Level Memphis Center
Sun 12:17:33 PM 33.0683 -89.6036 260° West 381 438 36,000  Level Memphis Center
Sun 12:18:33 PM 33.0733 -89.7300 273° West 386 444 36,000  Level Memphis Center
Sun 12:19:33 PM 33.0842 -89.8614 276° West 386 444 36,000  Level Memphis Center
Sun 12:20:33 PM 33.0911 -90.0028 273° West 391 450 36,000  Level Memphis Center
Sun 12:21:33 PM 33.0975 -90.1267 274° West 385 443 36,000  Level Memphis Center
Sun 12:22:33 PM 33.1061 -90.2531 275° West 385 443 36,000  Level Memphis Center
Sun 12:23:33 PM 33.1144 -90.3794 275° West 385 443 36,000  Level Memphis Center
Sun 12:24:33 PM 33.1228 -90.5061 275° West 385 443 36,000  Level Memphis Center
Sun 12:25:33 PM 33.1308 -90.6325 274° West 385 443 36,000  Level Memphis Center
Sun 12:26:33 PM 33.1389 -90.7592 274° West 385 443 36,000  Level Memphis Center
Sun 12:27:33 PM 33.1467 -90.8858 274° West 385 443 36,000  Level Memphis Center
Sun 12:28:33 PM 33.1544 -91.0122 274° West 385 443 36,000  Level Memphis Center
Sun 12:29:33 PM 33.1642 -91.1439 275° West 385 443 36,000  Level Memphis Center
Sun 12:31:42 PM 33.1831 -91.4197 275° West 393 452 36,000  Level Fort Worth Center
Sun 12:32:42 PM 33.1978 -91.5528 278° West 399 459 36,000  Level Fort Worth Center
Sun 12:33:42 PM 33.2058 -91.6839 274° West 405 466 36,000  Level Fort Worth Center
Sun 12:34:42 PM 33.2139 -91.8172 274° West 405 466 36,000  Level Fort Worth Center
Sun 12:35:42 PM 33.2178 -91.9536 272° West 405 466 36,000  Level Fort Worth Center
Sun 12:36:42 PM 33.2278 -92.0894 275° West 410 472 36,000  Level Fort Worth Center
Sun 12:37:42 PM 33.2336 -92.2258 273° West 410 472 36,000  Level Fort Worth Center
Sun 12:38:42 PM 33.2433 -92.3617 275° West 416 479 36,000  Level Fort Worth Center
Sun 12:39:42 PM 33.2489 -92.5006 273° West 421 484 36,000  Level Fort Worth Center
Sun 12:40:42 PM 33.2542 -92.6369 273° West 421 484 36,000  Level Fort Worth Center
Sun 12:41:42 PM 33.2675 -92.7753 277° West 421 484 36,000  Level Fort Worth Center
Sun 12:42:42 PM 33.2914 -92.9131 282° West 421 484 36,000  Level Fort Worth Center
Sun 12:43:42 PM 33.3192 -93.0508 284° West 426 490 36,000  Level Fort Worth Center
Sun 12:44:42 PM 33.3469 -93.1886 284° West 426 490 36,000  Level Fort Worth Center
Sun 12:45:42 PM 33.3722 -93.3244 283° West 426 490 36,000  Level Fort Worth Center
Sun 12:46:42 PM 33.3997 -93.4622 283° West 426 490 36,000  Level Fort Worth Center
Sun 12:47:42 PM 33.4247 -93.6006 282° West 426 490 36,000  Level Fort Worth Center
Sun 12:48:42 PM 33.4539 -93.7336 285° West 426 490 36,000  Level Fort Worth Center
Sun 12:49:42 PM 33.4808 -93.8769 283° West 432 497 36,000  Level Fort Worth Center
Sun 12:50:42 PM 33.5078 -94.0206 283° West 438 504 36,000  Level Fort Worth Center
Sun 12:51:42 PM 33.5281 -94.1617 280° West 438 504 36,000  Level Fort Worth Center
Sun 12:52:42 PM 33.5442 -94.3031 278° West 438 504 36,000  Level Fort Worth Center
Sun 12:53:42 PM 33.5603 -94.4447 278° West 438 504 36,000  Level Fort Worth Center
Sun 12:54:42 PM 33.5761 -94.5864 278° West 438 504 36,000  Level Fort Worth Center
Sun 12:55:42 PM 33.5917 -94.7278 278° West 438 504 36,000  Level Fort Worth Center
Sun 12:56:42 PM 33.6072 -94.8694 278° West 438 504 36,000  Level Fort Worth Center
Sun 12:57:42 PM 33.6244 -95.0136 278° West 438 504 36,000  Level Fort Worth Center
Sun 12:58:42 PM 33.6417 -95.1556 278° West 438 504 36,000  Level Fort Worth Center
Sun 12:59:42 PM 33.6631 -95.2972 280° West 443 510 36,000  Level Fort Worth Center
Sun 01:00:42 PM 33.6717 -95.4417 274° West 443 510 36,000  Level Fort Worth Center
Sun 01:01:42 PM 33.6883 -95.5836 278° West 443 510 36,000  Level Fort Worth Center
Sun 01:02:42 PM 33.7089 -95.7131 281° West 443 510 36,000  Level Fort Worth Center
Sun 01:03:42 PM 33.7214 -95.8525 276° West 443 510 36,000  Level Fort Worth Center
Sun 01:04:42 PM 33.7375 -95.9997 278° West 443 510 36,000  Level Fort Worth Center
Sun 01:05:42 PM 33.7536 -96.1419 278° West 438 504 36,000  Level Fort Worth Center
Sun 01:06:42 PM 33.7697 -96.2892 278° West 444 511 36,000  Level Fort Worth Center
Sun 01:07:42 PM 33.7856 -96.4464 277° West 444 511 36,000  Level Fort Worth Center
Sun 01:08:42 PM 33.8014 -96.5911 278° West 444 511 36,000  Level Fort Worth Center
Sun 01:09:42 PM 33.8147 -96.7358 276° West 444 511 36,000  Level Fort Worth Center
Sun 01:10:42 PM 33.8319 -96.8808 278° West 444 511 36,000  Level Fort Worth Center
Sun 01:11:42 PM 33.8450 -97.0208 276° West 438 504 36,000  Level Fort Worth Center
Sun 01:12:42 PM 33.8600 -97.1683 277° West 438 504 36,000  Level Fort Worth Center
Sun 01:13:42 PM 33.8728 -97.3083 276° West 438 504 36,000  Level Fort Worth Center
Sun 01:14:42 PM 33.8875 -97.4536 277° West 438 504 36,000  Level Fort Worth Center
Sun 01:15:42 PM 33.8997 -97.5961 276° West 445 512 36,000  Level Fort Worth Center
Sun 01:16:42 PM 33.9142 -97.7439 277° West 445 512 36,000  Level Fort Worth Center
Sun 01:17:42 PM 33.9261 -97.8867 276° West 440 506 36,000  Level Fort Worth Center
Sun 01:18:42 PM 33.9403 -98.0294 277° West 440 506 36,000  Level Fort Worth Center
Sun 01:19:42 PM 33.9519 -98.1597 276° West 440 506 36,000  Level Fort Worth Center
Sun 01:20:42 PM 33.9614 -98.3075 274° West 447 514 36,000  Level Fort Worth Center
Sun 01:21:42 PM 33.9750 -98.4503 277° West 439 505 36,000  Level Fort Worth Center
Sun 01:22:42 PM 33.9883 -98.5908 277° West 439 505 36,000  Level Fort Worth Center
Sun 01:23:42 PM 34.0078 -98.7314 280° West 439 505 36,000  Level Fort Worth Center
Sun 01:24:42 PM 34.0289 -98.8897 279° West 432 497 36,000  Level Fort Worth Center
Sun 01:25:42 PM 34.0481 -99.0303 279° West 432 497 36,000  Level Fort Worth Center
Sun 01:26:42 PM 34.0669 -99.1786 279° West 436 502 36,000  Level Fort Worth Center
Sun 01:27:42 PM 34.0858 -99.3194 279° West 436 502 36,000  Level Fort Worth Center
Sun 01:28:42 PM 34.1064 -99.4653 280° West 436 502 36,000  Level Fort Worth Center
Sun 01:29:42 PM 34.1247 -99.6086 279° West 442 509 36,000  Level Fort Worth Center
Sun 01:30:42 PM 34.1431 -99.7522 279° West 442 509 36,000  Level Fort Worth Center
Sun 01:31:42 PM 34.1611 -99.8958 279° West 447 514 36,000  Level Fort Worth Center
Sun 01:32:42 PM 34.1789 -100.0444 278° West 447 514 36,000  Level Fort Worth Center
Sun 01:33:42 PM 34.1969 -100.1856 279° West 447 514 36,000  Level Fort Worth Center
Sun 01:34:42 PM 34.2144 -100.3319 278° West 447 514 36,000  Level Fort Worth Center
Sun 01:35:42 PM 34.2339 -100.4731 280° West 442 509 36,000  Level Fort Worth Center
Sun 01:36:42 PM 34.2511 -100.6169 278° West 437 503 36,000  Level Fort Worth Center
Sun 01:37:42 PM 34.2661 -100.7633 277° West 437 503 36,000  Level Fort Worth Center
Sun 01:38:42 PM 34.2853 -100.9047 279° West 437 503 36,000  Level Fort Worth Center
Sun 01:39:42 PM 34.3036 -101.0614 278° West 443 510 36,000  Level Fort Worth Center
Sun 01:40:42 PM 34.3183 -101.1978 277° West 441 507 36,000  Level Fort Worth Center
Sun 01:41:42 PM 34.3347 -101.3444 278° West 436 502 36,000  Level Fort Worth Center
Sun 01:42:42 PM 34.3494 -101.4708 278° West 441 507 36,000  Level Fort Worth Center
Sun 01:43:42 PM 34.3672 -101.6325 278° West 441 507 36,000  Level Fort Worth Center
Sun 01:44:57 PM 34.3856 -101.8111 277° West 436 502 36,000  Level Albuquerque Center
Sun 01:45:59 PM 34.4017 -101.9569 278° West 436 502 36,000  Level Albuquerque Center
Sun 01:47:01 PM 34.4183 -102.1044 278° West 438 504 36,000  Level Albuquerque Center
Sun 01:48:03 PM 34.4331 -102.2506 277° West 437 503 36,000  Level Albuquerque Center
Sun 01:49:05 PM 34.4492 -102.3972 278° West 438 504 36,000  Level Albuquerque Center
Sun 01:50:07 PM 34.4647 -102.5450 277° West 441 507 36,000  Level Albuquerque Center
Sun 01:51:09 PM 34.4839 -102.7233 277° West 443 510 36,000  Level Albuquerque Center
Sun 01:52:11 PM 34.4944 -102.8733 275° West 442 509 36,000  Level Albuquerque Center
Sun 01:53:13 PM 34.4892 -103.0253 268° West 445 512 36,000  Level Albuquerque Center
Sun 01:54:15 PM 34.4839 -103.1783 268° West 449 517 36,000  Level Albuquerque Center
Sun 01:55:17 PM 34.4778 -103.3303 267° West 448 516 36,000  Level Albuquerque Center
Sun 01:56:19 PM 34.4728 -103.4839 268° West 450 518 36,000  Level Albuquerque Center
Sun 01:57:21 PM 34.4667 -103.6369 267° West 451 519 36,000  Level Albuquerque Center
Sun 01:58:23 PM 34.4608 -103.7900 267° West 451 519 36,000  Level Albuquerque Center
Sun 01:59:25 PM 34.4536 -103.9433 267° West 451 519 36,000  Level Albuquerque Center
Sun 02:00:27 PM 34.4458 -104.1236 267° West 453 521 36,000  Level Albuquerque Center
Sun 02:01:29 PM 34.4394 -104.2769 267° West 451 519 36,000  Level Albuquerque Center
Sun 02:02:31 PM 34.4317 -104.4308 267° West 451 519 36,000  Level Albuquerque Center
Sun 02:03:33 PM 34.4247 -104.5858 267° West 454 522 36,000  Level Albuquerque Center
Sun 02:04:35 PM 34.4175 -104.7378 267° West 452 520 36,000  Level Albuquerque Center
Sun 02:05:37 PM 34.4097 -104.8928 267° West 452 520 36,000  Level Albuquerque Center
Sun 02:06:39 PM 34.4017 -105.0472 266° West 454 522 36,000  Level Albuquerque Center
Sun 02:07:42 PM 34.3931 -105.2031 266° West 457 526 36,000  Level Albuquerque Center
Sun 02:08:44 PM 34.3844 -105.3844 267° West 458 527 36,000  Level Albuquerque Center
Sun 02:09:46 PM 34.3756 -105.5403 266° West 458 527 36,000  Level Albuquerque Center
Sun 02:10:48 PM 34.3667 -105.6956 266° West 458 527 36,000  Level Albuquerque Center
Sun 02:11:50 PM 34.3622 -105.8503 268° West 457 526 36,000  Level Albuquerque Center
Sun 02:12:52 PM 34.3614 -106.0075 270° West 459 528 36,000  Level Albuquerque Center
Sun 02:13:54 PM 34.3569 -106.1622 268° West 459 528 36,000  Level Albuquerque Center
Sun 02:14:56 PM 34.3517 -106.3208 268° West 466 536 36,000  Level Albuquerque Center
Sun 02:15:58 PM 34.3467 -106.4767 268° West 464 534 36,000  Level Albuquerque Center
Sun 02:17:00 PM 34.3442 -106.6292 269° West 456 525 36,000  Level Albuquerque Center
Sun 02:18:02 PM 34.3367 -106.8169 267° West 461 531 36,000  Level Albuquerque Center
Sun 02:19:04 PM 34.3150 -106.9767 261° West 473 544 36,000  Level Albuquerque Center
Sun 02:20:06 PM 34.2897 -107.1336 259° West 475 547 36,000  Level Albuquerque Center
Sun 02:21:08 PM 34.2661 -107.2894 260° West 475 547 36,000  Level Albuquerque Center
Sun 02:22:10 PM 34.2414 -107.4378 259° West 466 536 36,000  Level Albuquerque Center
Sun 02:23:12 PM 34.2178 -107.5897 259° West 465 535 36,000  Level Albuquerque Center
Sun 02:24:14 PM 34.1881 -107.7728 259° West 465 535 36,000  Level Albuquerque Center
Sun 02:25:16 PM 34.1628 -107.9244 259° West 465 535 36,000  Level Albuquerque Center
Sun 02:26:18 PM 34.1381 -108.0758 259° West 462 532 36,000  Level Albuquerque Center
Sun 02:27:20 PM 34.1144 -108.2231 259° West 460 529 36,000  Level Albuquerque Center
Sun 02:28:22 PM 34.0914 -108.3750 260° West 465 535 36,000  Level Albuquerque Center
Sun 02:29:24 PM 34.0606 -108.5511 258° West 457 526 36,000  Level Albuquerque Center
Sun 02:30:26 PM 34.0356 -108.7014 259° West 460 529 36,000  Level Albuquerque Center
Sun 02:31:28 PM 34.0117 -108.8483 259° West 457 526 36,000  Level Albuquerque Center
Sun 02:32:30 PM 33.9858 -108.9953 258° West 455 524 36,000  Level Albuquerque Center
Sun 02:33:32 PM 33.9547 -109.1714 258° West 454 522 36,000  Level Albuquerque Center
Sun 02:34:34 PM 33.9303 -109.3178 259° West 454 522 36,000  Level Albuquerque Center
Sun 02:35:36 PM 33.9042 -109.4647 258° West 454 522 36,000  Level Albuquerque Center
Sun 02:36:38 PM 33.8775 -109.6133 258° West 457 526 36,000  Level Albuquerque Center
Sun 02:37:40 PM 33.8517 -109.7592 258° West 455 524 36,000  Level Albuquerque Center
Sun 02:38:42 PM 33.8200 -109.9367 258° West 456 525 36,000  Level Albuquerque Center
Sun 02:39:44 PM 33.7936 -110.0828 258° West 455 524 36,000  Level Albuquerque Center
Sun 02:40:46 PM 33.7658 -110.2319 257° West 458 527 36,000  Level Albuquerque Center
Sun 02:41:49 PM 33.7375 -110.3789 257° West 458 527 36,000  Level Albuquerque Center
Sun 02:42:50 PM 33.7111 -110.5306 258° West 456 525 36,000  Level Albuquerque Center
Sun 02:43:52 PM 33.6822 -110.6789 257° West 456 525 36,000  Level Albuquerque Center
Sun 02:44:54 PM 33.6497 -110.8561 258° West 454 522 36,000  Level Albuquerque Center
Sun 02:45:56 PM 33.6219 -111.0033 257° West 452 520 36,000  Level Albuquerque Center
Sun 02:46:58 PM 33.5947 -111.1511 258° West 453 521 36,000  Level Albuquerque Center
Sun 02:48:00 PM 33.5661 -111.2983 257° West 451 519 36,000  Level Albuquerque Center
Sun 02:49:02 PM 33.5372 -111.4447 257° West 450 518 36,000  Level Albuquerque Center
Sun 02:50:04 PM 33.5083 -111.5908 257° West 448 516 36,000  Level Albuquerque Center
Sun 02:51:06 PM 33.4797 -111.7383 257° West 450 518 36,000  Level Albuquerque Center
Sun 02:52:08 PM 33.4478 -111.9147 258° West 450 518 36,000  Level Albuquerque Center
Sun 02:53:10 PM 33.4222 -112.0619 258° West 450 518 36,000  Level Albuquerque Center
Sun 02:54:12 PM 33.3950 -112.2078 257° West 449 517 36,000  Level Albuquerque Center
Sun 02:55:15 PM 33.3681 -112.3550 258° West 451 519 36,000  Level Albuquerque Center
Sun 02:56:17 PM 33.3403 -112.5017 257° West 452 520 36,000  Level Albuquerque Center
Sun 02:57:19 PM 33.3133 -112.6547 258° West 450 518 36,000  Level Albuquerque Center
Sun 02:58:21 PM 33.2856 -112.8006 257° West 451 519 36,000  Level Albuquerque Center
Sun 02:59:23 PM 33.2533 -112.9756 258° West 452 520 36,000 -242 Level Albuquerque Center
Sun 03:00:25 PM 33.2261 -113.1203 257° West 451 519 35,500 -871 Descending Albuquerque Center
Sun 03:01:27 PM 33.1983 -113.2636 257° West 448 516 34,200 -726 Descending Albuquerque Center
Sun 03:02:29 PM 33.1706 -113.4122 257° West 457 526 34,000 -97 Descending Albuquerque Center
Sun 03:03:31 PM 33.1417 -113.5606 257° West 462 532 34,000  Level Albuquerque Center
Sun 03:04:33 PM 33.1133 -113.7086 257° West 461 531 34,000  Level Albuquerque Center
Sun 03:05:35 PM 33.0789 -113.8833 257° West 457 526 34,000  Level Albuquerque Center
Sun 03:06:37 PM 33.0578 -114.0286 260° West 455 524 34,000  Level Albuquerque Center
Sun 03:07:39 PM 33.0425 -114.1733 263° West 451 519 34,000  Level Albuquerque Center
Sun 03:08:41 PM 33.0258 -114.3172 262° West 446 513 34,000  Level Albuquerque Center
Sun 03:09:15 PM 33.0153 -114.4139 263° West 447 514 34,000  Level Los Angeles Center
Sun 03:10:17 PM 32.9978 -114.5603 262° West 448 516 34,000  Level Los Angeles Center
Sun 03:11:19 PM 32.9778 -114.7072 261° West 452 520 34,000  Level Los Angeles Center
Sun 03:12:21 PM 32.9594 -114.8558 262° West 455 524 34,000 -290 Level Los Angeles Center
Sun 03:13:23 PM 32.9400 -115.0042 261° West 455 524 33,400 -968 Descending Los Angeles Center
Sun 03:14:25 PM 32.9164 -115.1814 261° West 453 521 32,000 -1,790 Descending Los Angeles Center
Sun 03:15:27 PM 32.8983 -115.3283 262° West 449 517 29,700 -2,880 Descending Los Angeles Center
Sun 03:16:30 PM 32.8769 -115.4803 261° West 467 537 26,000 -2,736 Descending Los Angeles Center
Sun 03:17:32 PM 32.8569 -115.6297 261° West 461 531 24,000 -2,226 Descending Los Angeles Center
Sun 03:18:34 PM 32.8367 -115.7792 261° West 459 528 21,400 -2,613 Descending Los Angeles Center
Sun 03:19:36 PM 32.8172 -115.9239 261° West 448 516 18,600 -2,468 Descending Los Angeles Center
Sun 03:20:38 PM 32.7942 -116.0903 261° West 428 493 16,300 -2,129 Descending Los Angeles Center
Sun 03:21:40 PM 32.7772 -116.2144 261° West 385 443 14,200 -2,323 Descending Los Angeles Center
Sun 03:22:42 PM 32.7600 -116.3300 260° West 358 412 11,500 -1,694 Descending Los Angeles Center
Sun 03:23:44 PM 32.7428 -116.4450 260° West 348 400 10,700 -871 Descending Los Angeles Center
Sun 03:24:46 PM 32.7281 -116.5539 261° West 336 387 9,700 -1,248 Descending Los Angeles Center
Sun 03:25:49 PM 32.7139 -116.6483 260° West 301 346 8,100 -1,296 Descending Los Angeles Center
Sun 03:26:51 PM 32.7092 -116.7400 267° West 282 325 7,000 -968 Descending Los Angeles Center
Sun 03:27:53 PM 32.7050 -116.8294 267° West 274 315 6,100 -1,032 Descending Los Angeles Center
Sun 03:28:24 PM 32.6833 -116.8833 244° Southwest 256 295 5,400 -1,319 Descending Southern California TRACON
Sun 03:29:24 PM 32.6833 -116.9500 270° West 218 251 4,100 -1,300 Descending Southern California TRACON

Login

Don't have an account? Register now (free) for customized features, flight alerts, and more!